Time;durP1;ratioP1;P1;durP2;ratioP2;P2;SDS_P1;SDS_P2;PMS_P1;PMS_P2;Temp;Humidity;BMP_temperature;BMP_pressure;BME280_temperature;BME280_humidity;BME280_pressure;Samples;Min_cycle;Max_cycle;Signal;HPM_P1;HPM_P2
2022/10/21 00:01:44;;;;;;;;;;;;;;;16.19;37.17;99925.75;4450840;32;33772;-90
2022/10/21 00:04:12;;;;;;;;;;;;;;;16.24;36.98;99923.13;4454875;32;34247;-89
2022/10/21 00:06:39;;;;;;;;;;;;;;;16.30;36.66;99918.78;4445640;32;35206;-88
2022/10/21 00:09:06;;;;;;;;;;;;;;;16.18;36.78;99918.78;4459028;32;33793;-89
2022/10/21 00:11:33;;;;;;;;;;;;;;;15.73;37.13;99928.22;4443898;32;32591;-89
2022/10/21 00:14:01;;;;;;;;;;;;;;;16.08;36.83;99921.38;4469235;32;33709;-90
2022/10/21 00:16:28;;;;;;;;;;;;;;;15.91;37.20;99935.28;4461768;32;35343;-89
2022/10/21 00:18:55;;;;;;;;;;;;;;;15.73;37.56;99925.63;4454619;32;34810;-89
2022/10/21 00:21:22;;;;;;;;;;;;;;;15.58;37.76;99917.69;4463978;32;33255;-89
2022/10/21 00:23:50;;;;;;;;;;;;;;;15.71;37.81;99916.00;4453228;32;34814;-88
2022/10/21 00:26:17;;;;;;;;;;;;;;;15.94;37.23;99913.47;4444619;32;34448;-88
2022/10/21 00:28:44;;;;;;;;;;;;;;;15.74;37.49;99909.06;4466418;32;33889;-89
2022/10/21 00:31:12;;;;;;;;;;;;;;;15.69;37.70;99910.78;4468048;32;33450;-90
2022/10/21 00:33:39;;;;;;;;;;;;;;;15.56;37.90;99907.19;4458914;32;34070;-89
2022/10/21 00:36:07;;;;;;;;;;;;;;;15.89;37.25;99902.13;4453814;32;35146;-89
2022/10/21 00:38:34;;;;;;;;;;;;;;;15.71;37.27;99905.56;4453810;32;33481;-89
2022/10/21 00:41:02;;;;;;;;;;;;;;;15.89;37.02;99896.91;4468234;32;32996;-89
2022/10/21 00:43:30;;;;;;;;;;;;;;;15.35;37.93;99888.81;4467470;32;33866;-88
2022/10/21 00:46:01;;;;;;;;;;;;;;;15.55;37.67;99900.22;4451351;32;35203;-89
2022/10/21 00:48:35;;;;;;;;;;;;;;;15.76;37.37;99898.62;4444548;32;33698;-90
2022/10/21 00:51:02;;;;;;;;;;;;;;;15.97;36.80;99882.97;4467417;32;33292;-89
2022/10/21 00:53:30;;;;;;;;;;;;;;;15.96;36.71;99878.63;4476638;32;32724;-89
2022/10/21 00:55:58;;;;;;;;;;;;;;;15.81;37.04;99882.06;4450975;32;34272;-89
2022/10/21 00:58:27;;;;;;;;;;;;;;;15.52;37.34;99881.91;4430670;32;33973;-88
2022/10/21 01:00:55;;;;;;;;;;;;;;;15.71;37.13;99885.50;4459169;32;33315;-88
2022/10/21 01:03:23;;;;;;;;;;;;;;;15.92;36.95;99881.22;4452005;32;34539;-90
2022/10/21 01:05:50;;;;;;;;;;;;;;;15.64;37.20;99881.09;4457759;32;34356;-89
2022/10/21 01:08:17;;;;;;;;;;;;;;;15.89;36.96;99874.25;4440289;32;32954;-91
2022/10/21 01:10:44;;;;;;;;;;;;;;;15.85;36.76;99872.50;4425751;32;32508;-90
2022/10/21 01:13:26;;;;;;;;;;;;;;;15.57;37.24;99876.72;4442044;32;34264;-91
2022/10/21 01:16:00;;;;;;;;;;;;;;;15.86;36.85;99858.53;4438089;32;35101;-89
2022/10/21 01:18:30;;;;;;;;;;;;;;;15.64;37.19;99877.59;4461684;32;34217;-90
2022/10/21 01:21:06;;;;;;;;;;;;;;;15.85;36.69;99866.38;4455856;32;31980;-89
2022/10/21 01:23:45;;;;;;;;;;;;;;;15.32;37.71;99866.16;4469041;32;33812;-90
2022/10/21 01:26:31;;;;;;;;;;;;;;;15.65;37.08;99861.97;4455856;32;35126;-89
2022/10/21 01:28:58;;;;;;;;;;;;;;;15.36;37.96;99867.03;4467229;32;34109;-89
2022/10/21 01:31:35;;;;;;;;;;;;;;;15.79;37.13;99867.22;4469060;31;33204;-90
2022/10/21 01:34:05;;;;;;;;;;;;;;;15.05;38.28;99863.41;4439915;32;34654;-90
2022/10/21 01:36:35;;;;;;;;;;;;;;;14.80;39.07;99860.62;4452127;32;34288;-90
2022/10/21 01:39:02;;;;;;;;;;;;;;;15.14;38.50;99860.84;4450113;32;34092;-90
2022/10/21 01:41:38;;;;;;;;;;;;;;;15.36;37.98;99846.16;4460742;32;33222;-91
2022/10/21 01:44:09;;;;;;;;;;;;;;;15.47;37.73;99839.22;4435566;32;33835;-91
2022/10/21 01:46:38;;;;;;;;;;;;;;;15.28;38.01;99830.44;4466882;32;34113;-91
2022/10/21 01:49:09;;;;;;;;;;;;;;;15.41;37.65;99831.34;4431830;32;33482;-90
2022/10/21 01:51:36;;;;;;;;;;;;;;;15.18;38.08;99840.84;4416239;32;32393;-90
2022/10/21 01:54:07;;;;;;;;;;;;;;;14.95;38.30;99838.97;4423615;32;33510;-90
2022/10/21 01:56:35;;;;;;;;;;;;;;;15.14;37.98;99841.69;4452921;32;33076;-90
2022/10/21 01:59:02;;;;;;;;;;;;;;;15.28;37.88;99842.63;4437310;32;33511;-92
2022/10/21 02:01:30;;;;;;;;;;;;;;;15.50;37.28;99851.44;4450155;32;32400;-90
2022/10/21 02:03:58;;;;;;;;;;;;;;;15.41;37.44;99852.25;4452965;32;33527;-90
2022/10/21 02:06:25;;;;;;;;;;;;;;;15.00;38.05;99841.59;4427233;32;33270;-90
2022/10/21 02:08:52;;;;;;;;;;;;;;;15.38;37.67;99844.44;4452923;32;34891;-91
2022/10/21 02:11:20;;;;;;;;;;;;;;;15.29;37.47;99840.00;4449545;32;33348;-90
2022/10/21 02:13:50;;;;;;;;;;;;;;;15.19;37.89;99839.97;4429915;32;32991;-88
2022/10/21 02:16:17;;;;;;;;;;;;;;;15.38;37.23;99835.69;4446036;32;33846;-89
2022/10/21 02:18:45;;;;;;;;;;;;;;;15.18;37.91;99857.38;4437686;32;33464;-90
2022/10/21 02:21:13;;;;;;;;;;;;;;;15.17;38.00;99858.25;4438008;32;32392;-91
2022/10/21 02:23:59;;;;;;;;;;;;;;;14.76;38.20;99842.34;4452337;32;33099;-90
2022/10/21 02:26:26;;;;;;;;;;;;;;;14.85;38.45;99855.47;4443079;32;33271;-89
2022/10/21 02:28:54;;;;;;;;;;;;;;;14.63;38.90;99848.34;4424933;32;33551;-90
2022/10/21 02:31:32;;;;;;;;;;;;;;;14.69;38.86;99848.37;4462348;32;32875;-91
2022/10/21 02:34:09;;;;;;;;;;;;;;;14.75;38.76;99849.28;4438208;32;33371;-96
2022/10/21 02:36:39;;;;;;;;;;;;;;;14.53;39.03;99850.88;4438981;32;33461;-90
2022/10/21 02:39:27;;;;;;;;;;;;;;;14.91;38.46;99859.84;4422705;32;33182;-90
2022/10/21 02:41:54;;;;;;;;;;;;;;;14.94;38.48;99850.28;4438940;32;32041;-90
2022/10/21 02:44:22;;;;;;;;;;;;;;;15.25;37.66;99837.38;4451139;32;33739;-90
2022/10/21 02:46:49;;;;;;;;;;;;;;;15.11;37.95;99828.59;4446888;32;33162;-90
2022/10/21 02:49:16;;;;;;;;;;;;;;;14.96;38.19;99839.84;4457643;32;34216;-89
2022/10/21 02:51:43;;;;;;;;;;;;;;;15.05;37.83;99837.28;4444435;32;32499;-89
2022/10/21 02:54:11;;;;;;;;;;;;;;;14.69;38.50;99840.53;4450638;32;34549;-90
2022/10/21 02:56:38;;;;;;;;;;;;;;;14.50;38.83;99845.62;4453628;32;33875;-88
2022/10/21 02:59:05;;;;;;;;;;;;;;;14.39;38.94;99833.31;4438967;32;33317;-88
2022/10/21 03:01:33;;;;;;;;;;;;;;;14.38;39.00;99839.41;4456076;32;33595;-89
2022/10/21 03:04:00;;;;;;;;;;;;;;;14.68;38.52;99833.59;4459820;32;34224;-90
2022/10/21 03:06:27;;;;;;;;;;;;;;;14.69;38.54;99843.16;4449199;32;33032;-89
2022/10/21 03:08:54;;;;;;;;;;;;;;;14.64;38.54;99845.72;4444014;32;34748;-90
2022/10/21 03:11:22;;;;;;;;;;;;;;;14.22;39.37;99844.50;4442274;32;32934;-90
2022/10/21 03:13:49;;;;;;;;;;;;;;;14.52;38.74;99843.03;4443007;32;33954;-90
2022/10/21 03:16:16;;;;;;;;;;;;;;;14.62;38.53;99833.53;4455265;32;35176;-90
2022/10/21 03:19:04;;;;;;;;;;;;;;;14.93;37.88;99832.87;4405818;32;33290;-89
2022/10/21 03:21:31;;;;;;;;;;;;;;;14.90;37.96;99837.22;4408829;32;31940;-89
2022/10/21 03:23:58;;;;;;;;;;;;;;;14.84;37.93;99832.81;4432218;32;34660;-90
2022/10/21 03:26:25;;;;;;;;;;;;;;;14.57;38.50;99836.97;4397934;32;33039;-90
2022/10/21 03:28:53;;;;;;;;;;;;;;;14.79;38.00;99829.31;4420376;32;33825;-89
2022/10/21 03:31:20;;;;;;;;;;;;;;;14.81;37.89;99825.84;4422540;32;33418;-90
2022/10/21 03:33:47;;;;;;;;;;;;;;;14.60;38.08;99818.75;4434696;32;33313;-90
2022/10/21 03:36:14;;;;;;;;;;;;;;;14.47;38.35;99814.28;4421788;32;33981;-87
2022/10/21 03:38:41;;;;;;;;;;;;;;;14.68;38.01;99817.94;4447913;32;33578;-90
2022/10/21 03:41:09;;;;;;;;;;;;;;;14.60;38.24;99826.56;4454261;32;34278;-89
2022/10/21 03:43:36;;;;;;;;;;;;;;;14.81;37.77;99824.94;4440776;32;35002;-89
2022/10/21 03:46:03;;;;;;;;;;;;;;;14.55;38.17;99820.47;4454000;32;34297;-89
2022/10/21 03:48:31;;;;;;;;;;;;;;;14.70;37.77;99813.56;4469851;32;34087;-89
2022/10/21 03:50:58;;;;;;;;;;;;;;;14.72;37.88;99811.84;4439012;32;32113;-88
2022/10/21 03:53:25;;;;;;;;;;;;;;;14.69;37.67;99804.88;4448470;32;34846;-88
2022/10/21 03:56:10;;;;;;;;;;;;;;;14.69;37.76;99807.47;4434209;32;33286;-89
2022/10/21 03:58:37;;;;;;;;;;;;;;;14.66;37.89;99806.59;4432786;32;33476;-96
2022/10/21 04:01:04;;;;;;;;;;;;;;;14.70;37.76;99800.53;4414747;32;32541;-90
2022/10/21 04:03:32;;;;;;;;;;;;;;;14.70;37.53;99803.13;4443561;32;34667;-90
2022/10/21 04:05:59;;;;;;;;;;;;;;;14.42;38.04;99799.44;4469605;32;34910;-90
2022/10/21 04:08:26;;;;;;;;;;;;;;;14.39;38.34;99792.47;4441308;32;33509;-89
2022/10/21 04:10:55;;;;;;;;;;;;;;;14.76;37.58;99791.00;4458537;32;33299;-91
2022/10/21 04:13:23;;;;;;;;;;;;;;;14.29;38.42;99788.06;4439850;32;33209;-91
2022/10/21 04:15:50;;;;;;;;;;;;;;;14.20;38.83;99794.06;4465161;32;33031;-90
2022/10/21 04:18:23;;;;;;;;;;;;;;;14.17;38.99;99785.31;4442397;32;34506;-88
2022/10/21 04:20:51;;;;;;;;;;;;;;;13.63;39.87;99790.91;4474343;32;34756;-96
2022/10/21 04:23:18;;;;;;;;;;;;;;;13.96;39.53;99791.25;4456176;32;33845;-95
2022/10/21 04:25:45;;;;;;;;;;;;;;;14.16;38.95;99792.28;4452945;32;35222;-89
2022/10/21 04:28:12;;;;;;;;;;;;;;;14.14;38.92;99793.16;4465449;32;33384;-91
2022/10/21 04:30:43;;;;;;;;;;;;;;;14.25;38.55;99797.59;4477737;32;33031;-95
2022/10/21 04:33:11;;;;;;;;;;;;;;;14.26;38.61;99783.69;4457003;32;32795;-88
2022/10/21 04:35:39;;;;;;;;;;;;;;;14.15;38.77;99779.25;4473889;32;33025;-96
2022/10/21 04:38:06;;;;;;;;;;;;;;;13.94;38.98;99770.41;4444785;32;32964;-90
2022/10/21 04:40:33;;;;;;;;;;;;;;;14.01;38.83;99761.72;4455893;32;33289;-89
2022/10/21 04:43:01;;;;;;;;;;;;;;;13.73;39.13;99764.97;4462735;32;33445;-89
2022/10/21 04:45:28;;;;;;;;;;;;;;;13.12;40.73;99758.22;4437973;32;34548;-95
2022/10/21 04:48:15;;;;;;;;;;;;;;;12.90;41.08;99761.41;4455150;32;34259;-90
2022/10/21 04:50:42;;;;;;;;;;;;;;;12.24;42.42;99759.59;4465269;32;33418;-90
2022/10/21 04:53:09;;;;;;;;;;;;;;;12.84;41.57;99758.72;4455553;32;34986;-89
2022/10/21 04:55:39;;;;;;;;;;;;;;;13.20;40.99;99752.22;4446428;32;33520;-90
2022/10/21 04:58:07;;;;;;;;;;;;;;;13.02;41.19;99758.94;4467293;32;34270;-90
2022/10/21 05:00:34;;;;;;;;;;;;;;;12.60;41.22;99760.13;4454582;32;33208;-92
2022/10/21 05:03:01;;;;;;;;;;;;;;;13.13;40.84;99756.47;4437898;32;34312;-89
2022/10/21 05:05:29;;;;;;;;;;;;;;;13.63;39.94;99759.66;4466005;32;34680;-89
2022/10/21 05:07:56;;;;;;;;;;;;;;;14.07;38.87;99759.19;4453346;32;34379;-89
2022/10/21 05:10:24;;;;;;;;;;;;;;;13.82;39.78;99760.69;4452972;32;33618;-91
2022/10/21 05:12:52;;;;;;;;;;;;;;;13.73;39.86;99754.56;4436380;32;34217;-89
2022/10/21 05:15:19;;;;;;;;;;;;;;;13.67;39.97;99746.66;4478988;32;32712;-89
2022/10/21 05:17:46;;;;;;;;;;;;;;;14.14;39.15;99756.66;4483326;32;34173;-89
2022/10/21 05:20:14;;;;;;;;;;;;;;;14.22;38.68;99749.75;4455938;32;32193;-89
2022/10/21 05:22:41;;;;;;;;;;;;;;;13.55;39.96;99740.47;4453334;32;33543;-88
2022/10/21 05:25:08;;;;;;;;;;;;;;;14.19;38.74;99744.50;4441678;32;33268;-89
2022/10/21 05:27:36;;;;;;;;;;;;;;;14.50;38.09;99756.03;4454481;32;33844;-89
2022/10/21 05:30:03;;;;;;;;;;;;;;;14.32;38.55;99759.41;4468535;32;33335;-88
2022/10/21 05:32:30;;;;;;;;;;;;;;;13.94;39.00;99757.34;4453788;32;34006;-90
2022/10/21 05:34:57;;;;;;;;;;;;;;;14.48;38.16;99757.75;4468788;32;34262;-89
2022/10/21 05:37:25;;;;;;;;;;;;;;;14.28;38.63;99761.09;4468218;32;34124;-89
2022/10/21 05:39:52;;;;;;;;;;;;;;;14.49;38.22;99763.00;4477614;32;33143;-89
2022/10/21 05:42:19;;;;;;;;;;;;;;;14.51;38.05;99773.47;4482950;32;34977;-89
2022/10/21 05:44:47;;;;;;;;;;;;;;;14.31;38.58;99765.44;4483195;32;35235;-89
2022/10/21 05:47:14;;;;;;;;;;;;;;;14.21;38.62;99754.09;4478073;32;34178;-89
2022/10/21 05:49:41;;;;;;;;;;;;;;;13.82;38.88;99739.84;4453296;32;33295;-89
2022/10/21 05:52:08;;;;;;;;;;;;;;;14.42;38.38;99737.69;4466260;32;33690;-90
2022/10/21 05:54:35;;;;;;;;;;;;;;;13.26;39.86;99732.38;4453016;32;33318;-89
2022/10/21 05:57:03;;;;;;;;;;;;;;;13.18;40.51;99749.59;4453206;32;33693;-90
2022/10/21 05:59:30;;;;;;;;;;;;;;;13.74;38.91;99758.88;4453292;32;32505;-89
2022/10/21 06:01:57;;;;;;;;;;;;;;;13.71;39.01;99779.69;4440430;32;34339;-89
2022/10/21 06:04:25;;;;;;;;;;;;;;;13.71;39.13;99787.53;4466045;32;33731;-90
2022/10/21 06:06:52;;;;;;;;;;;;;;;13.98;39.23;99781.69;4466294;32;33883;-90
2022/10/21 06:09:19;;;;;;;;;;;;;;;13.77;39.32;99787.59;4440335;32;32545;-89
2022/10/21 06:11:46;;;;;;;;;;;;;;;14.03;38.70;99790.44;4452935;32;33172;-90
2022/10/21 06:14:14;;;;;;;;;;;;;;;13.99;38.74;99796.50;4440431;32;34530;-89
2022/10/21 06:16:41;;;;;;;;;;;;;;;14.26;38.85;99811.50;4453235;32;33641;-90
2022/10/21 06:19:08;;;;;;;;;;;;;;;14.28;38.57;99797.63;4453144;32;33072;-89
2022/10/21 06:21:35;;;;;;;;;;;;;;;14.62;37.86;99786.56;4452910;32;33941;-90
2022/10/21 06:24:02;;;;;;;;;;;;;;;14.59;37.92;99797.88;4453235;32;34267;-89
2022/10/21 06:26:30;;;;;;;;;;;;;;;13.91;39.03;99795.56;4467202;32;33825;-90
2022/10/21 06:29:02;;;;;;;;;;;;;;;13.77;39.79;99803.22;4465997;32;33289;-89
2022/10/21 06:31:29;;;;;;;;;;;;;;;14.23;39.41;99804.50;4465702;32;34211;-89
2022/10/21 06:33:56;;;;;;;;;;;;;;;14.76;38.53;99814.50;4439875;32;33646;-89
2022/10/21 06:36:23;;;;;;;;;;;;;;;14.75;37.67;99819.72;4452828;32;33713;-90
2022/10/21 06:38:50;;;;;;;;;;;;;;;14.91;37.83;99816.31;4452879;32;33621;-89
2022/10/21 06:41:18;;;;;;;;;;;;;;;14.67;38.41;99808.34;4452618;32;34531;-89
2022/10/21 06:43:45;;;;;;;;;;;;;;;13.74;40.77;99800.59;4437179;32;33571;-89
2022/10/21 06:46:13;;;;;;;;;;;;;;;13.56;40.92;99809.06;4440033;32;33601;-90
2022/10/21 06:48:41;;;;;;;;;;;;;;;13.96;40.71;99801.69;4452788;32;34443;-95
2022/10/21 06:51:13;;;;;;;;;;;;;;;14.54;40.01;99794.34;4439820;32;33502;-90
2022/10/21 06:53:41;;;;;;;;;;;;;;;14.73;39.48;99793.59;4439886;32;32857;-89
2022/10/21 06:56:10;;;;;;;;;;;;;;;14.26;39.89;99777.59;4452656;32;34808;-89
2022/10/21 06:58:37;;;;;;;;;;;;;;;14.48;39.93;99789.94;4452612;32;33955;-89
2022/10/21 07:01:05;;;;;;;;;;;;;;;15.13;38.85;99785.97;4452495;32;34167;-89
2022/10/21 07:03:53;;;;;;;;;;;;;;;15.26;38.11;99784.28;4441889;32;34010;-88
2022/10/21 07:06:20;;;;;;;;;;;;;;;14.14;38.91;99786.19;4452143;32;32653;-89
2022/10/21 07:08:47;;;;;;;;;;;;;;;14.30;38.46;99784.56;4452615;32;33351;-89
2022/10/21 07:11:25;;;;;;;;;;;;;;;14.17;38.93;99782.72;4440438;32;33466;-89
2022/10/21 07:13:52;;;;;;;;;;;;;;;14.43;37.53;99781.19;4452241;32;34859;-89
2022/10/21 07:16:23;;;;;;;;;;;;;;;14.81;37.63;99785.81;4452424;32;34819;-89
2022/10/21 07:18:50;;;;;;;;;;;;;;;14.95;37.66;99783.28;4452882;32;33264;-89
2022/10/21 07:21:19;;;;;;;;;;;;;;;15.11;37.27;99789.44;4468354;32;34850;-90
2022/10/21 07:23:46;;;;;;;;;;;;;;;14.38;37.18;99793.31;4454520;32;34144;-89
2022/10/21 07:26:14;;;;;;;;;;;;;;;13.62;38.76;99799.59;4454413;32;33994;-89
2022/10/21 07:28:45;;;;;;;;;;;;;;;14.22;38.37;99796.69;4454362;32;34043;-88
2022/10/21 07:31:17;;;;;;;;;;;;;;;12.87;40.11;99800.38;4468426;32;34345;-90
2022/10/21 07:33:44;;;;;;;;;;;;;;;12.69;40.69;99810.53;4454608;32;34605;-89
2022/10/21 07:36:12;;;;;;;;;;;;;;;12.77;41.10;99811.53;4454481;32;33715;-89
2022/10/21 07:38:42;;;;;;;;;;;;;;;12.62;40.77;99823.47;4441442;32;33707;-88
2022/10/21 07:41:12;;;;;;;;;;;;;;;12.36;42.09;99814.41;4454095;32;32999;-89
2022/10/21 07:43:39;;;;;;;;;;;;;;;13.33;40.69;99808.81;4454289;32;33881;-89
2022/10/21 07:46:07;;;;;;;;;;;;;;;14.19;38.37;99799.25;4441538;32;32663;-89
2022/10/21 07:48:34;;;;;;;;;;;;;;;14.29;37.95;99793.28;4441164;32;33496;-90
2022/10/21 07:51:05;;;;;;;;;;;;;;;13.65;39.34;99796.16;4439166;32;34849;-89
2022/10/21 07:53:33;;;;;;;;;;;;;;;13.98;38.86;99782.59;4468238;32;35185;-89
2022/10/21 07:56:11;;;;;;;;;;;;;;;14.33;38.30;99782.00;4454413;32;34885;-89
2022/10/21 07:58:38;;;;;;;;;;;;;;;13.73;39.24;99781.47;4467295;32;33531;-89
2022/10/21 08:01:06;;;;;;;;;;;;;;;14.18;38.65;99776.66;4454164;32;34246;-89
2022/10/21 08:03:33;;;;;;;;;;;;;;;14.20;38.21;99773.19;4441265;32;32839;-89
2022/10/21 08:06:01;;;;;;;;;;;;;;;13.95;38.73;99760.84;4467478;32;33735;-89
2022/10/21 08:08:28;;;;;;;;;;;;;;;13.15;40.88;99758.25;4454028;32;31922;-89
2022/10/21 08:10:55;;;;;;;;;;;;;;;14.08;39.18;99760.06;4441483;32;32589;-89
2022/10/21 08:13:23;;;;;;;;;;;;;;;13.86;39.02;99766.81;4454442;32;34292;-89
2022/10/21 08:15:51;;;;;;;;;;;;;;;14.50;38.93;99762.13;4453978;32;34168;-88
2022/10/21 08:18:18;;;;;;;;;;;;;;;14.42;39.02;99761.19;4454124;32;33536;-88
2022/10/21 08:20:46;;;;;;;;;;;;;;;13.51;40.28;99754.31;4426090;32;33176;-88
2022/10/21 08:23:14;;;;;;;;;;;;;;;13.15;40.82;99749.56;4436474;32;32790;-87
2022/10/21 08:25:47;;;;;;;;;;;;;;;12.77;41.44;99765.59;4454056;32;34527;-88
2022/10/21 08:28:15;;;;;;;;;;;;;;;13.56;40.29;99751.75;4468381;32;33500;-89
2022/10/21 08:30:42;;;;;;;;;;;;;;;13.62;40.49;99755.31;4437623;32;32887;-89
2022/10/21 08:33:10;;;;;;;;;;;;;;;13.61;40.19;99750.09;4454146;32;34304;-88
2022/10/21 08:35:38;;;;;;;;;;;;;;;14.27;39.12;99751.50;4454381;32;34008;-88
2022/10/21 08:38:05;;;;;;;;;;;;;;;14.30;39.17;99742.84;4453992;32;33402;-89
2022/10/21 08:40:39;;;;;;;;;;;;;;;14.76;38.62;99740.53;4468274;32;33824;-89
2022/10/21 08:43:07;;;;;;;;;;;;;;;13.84;40.82;99734.66;4431227;32;786463;-89
2022/10/21 08:45:40;;;;;;;;;;;;;;;13.82;40.85;99728.56;4464239;32;34583;-89
2022/10/21 08:48:08;;;;;;;;;;;;;;;13.93;40.40;99734.72;4468058;32;33400;-89
2022/10/21 08:50:39;;;;;;;;;;;;;;;13.57;41.58;99733.56;4453742;32;34047;-89
2022/10/21 08:53:27;;;;;;;;;;;;;;;12.64;43.02;99729.84;4453950;32;34193;-88
2022/10/21 08:55:57;;;;;;;;;;;;;;;14.26;40.19;99728.91;4453860;32;34172;-88
2022/10/21 08:58:24;;;;;;;;;;;;;;;13.84;41.17;99721.63;4453767;32;33379;-89
2022/10/21 09:00:51;;;;;;;;;;;;;;;14.16;40.73;99714.06;4453887;32;34063;-89
2022/10/21 09:03:23;;;;;;;;;;;;;;;14.17;40.95;99714.91;4467685;32;33664;-90
2022/10/21 09:06:09;;;;;;;;;;;;;;;14.46;40.70;99708.16;4453933;32;34105;-88
2022/10/21 09:08:37;;;;;;;;;;;;;;;15.59;37.54;99707.72;4467718;32;33299;-89
2022/10/21 09:11:09;;;;;;;;;;;;;;;15.03;38.43;99704.09;4453666;32;33345;-90
2022/10/21 09:14:00;;;;;;;;;;;;;;;15.60;37.27;99708.56;4453793;32;34416;-89
2022/10/21 09:16:31;;;;;;;;;;;;;;;13.68;40.40;99704.13;4452409;32;33587;-89
2022/10/21 09:19:25;;;;;;;;;;;;;;;13.56;40.71;99710.09;4453788;32;34006;-88
2022/10/21 09:22:11;;;;;;;;;;;;;;;14.04;40.12;99696.59;4441736;32;34013;-89
2022/10/21 09:24:59;;;;;;;;;;;;;;;13.88;41.25;99693.00;4467740;32;33736;-91
2022/10/21 09:27:26;;;;;;;;;;;;;;;13.55;40.86;99693.59;4453651;32;34704;-90
2022/10/21 09:30:14;;;;;;;;;;;;;;;14.22;39.56;99697.59;4441778;32;32372;-89
2022/10/21 09:32:42;;;;;;;;;;;;;;;14.57;38.85;99690.84;4440824;32;33913;-88
2022/10/21 09:35:14;;;;;;;;;;;;;;;14.32;40.04;99688.97;4453596;32;35185;-90
2022/10/21 09:37:43;;;;;;;;;;;;;;;14.57;39.59;99675.19;4453746;32;33520;-89
2022/10/21 09:40:15;;;;;;;;;;;;;;;14.53;39.55;99672.59;4453539;32;33931;-89
2022/10/21 09:42:43;;;;;;;;;;;;;;;14.99;39.01;99665.78;4453196;32;34057;-90
2022/10/21 09:45:35;;;;;;;;;;;;;;;15.40;37.90;99667.63;4441747;32;33927;-89
2022/10/21 09:48:20;;;;;;;;;;;;;;;15.24;38.00;99663.25;4467642;32;34244;-89
2022/10/21 09:51:03;;;;;;;;;;;;;;;14.24;39.67;99664.56;4467384;32;33609;-89
2022/10/21 09:53:33;;;;;;;;;;;;;;;14.57;38.77;99656.06;4453654;32;33920;-90
2022/10/21 09:56:02;;;;;;;;;;;;;;;14.96;38.43;99646.62;4453323;32;34916;-91
2022/10/21 09:58:36;;;;;;;;;;;;;;;15.05;37.98;99647.53;4453374;32;34487;-88
2022/10/21 10:01:04;;;;;;;;;;;;;;;15.17;37.63;99653.66;4467251;32;34114;-88
2022/10/21 10:03:35;;;;;;;;;;;;;;;15.45;37.12;99649.34;4467630;32;34639;-89
2022/10/21 10:06:04;;;;;;;;;;;;;;;16.41;35.83;99643.16;4453425;32;34066;-90
2022/10/21 10:08:33;;;;;;;;;;;;;;;15.87;36.42;99645.88;4440383;32;33578;-89
2022/10/21 10:11:10;;;;;;;;;;;;;;;15.56;37.15;99640.63;4453416;32;33551;-89
2022/10/21 10:13:55;;;;;;;;;;;;;;;15.84;36.30;99624.97;4453281;32;34674;-89
2022/10/21 10:16:30;;;;;;;;;;;;;;;15.83;37.06;99628.44;4453167;32;33853;-90
2022/10/21 10:19:09;;;;;;;;;;;;;;;16.22;36.51;99622.28;4437562;32;34397;-90
2022/10/21 10:21:36;;;;;;;;;;;;;;;16.52;35.33;99609.97;4446883;32;33439;-89
2022/10/21 10:24:04;;;;;;;;;;;;;;;15.69;36.97;99602.34;4440392;32;33247;-90
2022/10/21 10:26:32;;;;;;;;;;;;;;;15.64;36.99;99600.53;4453145;32;34338;-89
2022/10/21 10:29:02;;;;;;;;;;;;;;;15.27;37.72;99614.50;4440221;32;33359;-88
2022/10/21 10:31:30;;;;;;;;;;;;;;;14.94;38.01;99615.31;4440183;32;32513;-90
2022/10/21 10:33:59;;;;;;;;;;;;;;;15.40;37.52;99606.66;4440270;32;34000;-89
2022/10/21 10:36:28;;;;;;;;;;;;;;;15.49;37.37;99606.66;4440297;32;33674;-90
2022/10/21 10:38:56;;;;;;;;;;;;;;;15.49;37.18;99604.94;4440413;32;34901;-90
2022/10/21 10:41:28;;;;;;;;;;;;;;;15.49;37.33;99599.72;4439946;32;32698;-90
2022/10/21 10:43:56;;;;;;;;;;;;;;;16.46;36.30;99589.91;4452670;32;34886;-91
2022/10/21 10:46:24;;;;;;;;;;;;;;;16.72;35.34;99581.06;4452821;32;34374;-89
2022/10/21 10:48:52;;;;;;;;;;;;;;;16.67;35.31;99573.25;4440048;32;33292;-90
2022/10/21 10:51:33;;;;;;;;;;;;;;;15.74;37.12;99576.19;4452822;32;33101;-87
2022/10/21 10:54:06;;;;;;;;;;;;;;;15.92;36.58;99560.47;4453368;32;33946;-91
2022/10/21 10:56:37;;;;;;;;;;;;;;;16.27;36.45;99570.81;4441751;32;33303;-87
2022/10/21 10:59:07;;;;;;;;;;;;;;;15.94;36.38;99553.47;4454292;32;33800;-91
2022/10/21 11:01:36;;;;;;;;;;;;;;;16.25;36.33;99537.66;4468948;32;33146;-90
2022/10/21 11:04:15;;;;;;;;;;;;;;;16.60;36.17;99540.12;4455062;32;33926;-88
2022/10/21 11:06:47;;;;;;;;;;;;;;;15.39;38.08;99548.31;4454976;32;35212;-90
2022/10/21 11:09:14;;;;;;;;;;;;;;;16.28;36.12;99548.12;4455008;32;33858;-92
2022/10/21 11:11:42;;;;;;;;;;;;;;;16.65;35.38;99537.47;4468490;32;33394;-89
2022/10/21 11:14:11;;;;;;;;;;;;;;;17.17;34.96;99542.41;4468734;32;33519;-90
2022/10/21 11:16:59;;;;;;;;;;;;;;;16.78;35.41;99534.81;4468805;32;34098;-89
2022/10/21 11:19:50;;;;;;;;;;;;;;;15.94;36.37;99522.09;4468659;32;34048;-89
2022/10/21 11:22:37;;;;;;;;;;;;;;;15.51;37.14;99539.59;4464287;32;33587;-90
2022/10/21 11:25:06;;;;;;;;;;;;;;;16.19;36.28;99532.47;4441698;32;34037;-92
2022/10/21 11:27:40;;;;;;;;;;;;;;;15.55;37.54;99529.13;4441510;32;33011;-89
2022/10/21 11:30:10;;;;;;;;;;;;;;;15.94;37.47;99518.59;4467300;32;33878;-90
2022/10/21 11:32:43;;;;;;;;;;;;;;;16.36;36.72;99509.72;4454408;32;33422;-90
2022/10/21 11:35:16;;;;;;;;;;;;;;;15.88;36.40;99505.56;4454534;32;33987;-90
2022/10/21 11:37:52;;;;;;;;;;;;;;;15.56;37.16;99509.09;4468959;32;34426;-90
2022/10/21 11:40:23;;;;;;;;;;;;;;;16.11;36.08;99503.75;4468584;32;33313;-90
2022/10/21 11:42:50;;;;;;;;;;;;;;;15.87;35.72;99491.59;4468274;32;33301;-90
2022/10/21 11:45:23;;;;;;;;;;;;;;;16.68;34.95;99479.88;4441237;32;33980;-90
2022/10/21 11:47:50;;;;;;;;;;;;;;;16.86;34.11;99484.13;4454566;32;33955;-89
2022/10/21 11:50:26;;;;;;;;;;;;;;;17.05;34.84;99485.72;4468709;32;33809;-90
2022/10/21 11:52:57;;;;;;;;;;;;;;;16.35;34.12;99487.03;4441298;32;31987;-90
2022/10/21 11:55:28;;;;;;;;;;;;;;;15.90;35.29;99483.75;4441144;32;34034;-89
2022/10/21 11:57:59;;;;;;;;;;;;;;;16.64;34.00;99478.16;4468303;32;35142;-90
2022/10/21 12:00:27;;;;;;;;;;;;;;;16.20;34.58;99468.81;4441804;32;33957;-90
2022/10/21 12:03:09;;;;;;;;;;;;;;;16.56;34.99;99462.50;4454428;32;34125;-91
2022/10/21 12:05:40;;;;;;;;;;;;;;;16.59;34.04;99461.59;4468378;32;34640;-89
2022/10/21 12:08:26;;;;;;;;;;;;;;;16.58;34.22;99460.72;4454478;32;34076;-90
2022/10/21 12:10:56;;;;;;;;;;;;;;;16.61;33.46;99457.22;4454277;32;34393;-90
2022/10/21 12:13:28;;;;;;;;;;;;;;;16.18;34.21;99455.75;4441804;32;33825;-90
2022/10/21 12:16:01;;;;;;;;;;;;;;;16.81;33.53;99455.34;4453914;32;34870;-92
2022/10/21 12:18:28;;;;;;;;;;;;;;;16.74;33.70;99458.91;4440633;32;32986;-89
2022/10/21 12:20:55;;;;;;;;;;;;;;;16.72;33.30;99452.78;4454230;32;34329;-90
2022/10/21 12:23:24;;;;;;;;;;;;;;;17.00;33.22;99456.94;4441248;32;32018;-90
2022/10/21 12:26:10;;;;;;;;;;;;;;;17.21;33.18;99450.66;4454000;32;34096;-89
2022/10/21 12:28:39;;;;;;;;;;;;;;;16.82;32.90;99446.66;4453856;32;34715;-90
2022/10/21 12:31:19;;;;;;;;;;;;;;;16.89;33.25;99450.06;4454107;32;34567;-90
2022/10/21 12:33:47;;;;;;;;;;;;;;;16.64;33.73;99442.38;4438600;32;31888;-90
2022/10/21 12:36:23;;;;;;;;;;;;;;;16.65;33.51;99440.62;4426398;32;33267;-90
2022/10/21 12:38:54;;;;;;;;;;;;;;;17.29;32.54;99437.47;4453601;32;34612;-89
2022/10/21 12:41:37;;;;;;;;;;;;;;;16.43;33.87;99438.13;4440914;32;33022;-90
2022/10/21 12:44:06;;;;;;;;;;;;;;;17.14;32.77;99428.00;4454592;32;33570;-90
2022/10/21 12:46:35;;;;;;;;;;;;;;;15.74;34.89;99425.44;4454122;32;34166;-91
2022/10/21 12:49:09;;;;;;;;;;;;;;;15.76;34.95;99428.06;4441586;32;34529;-89
2022/10/21 12:51:36;;;;;;;;;;;;;;;16.45;34.04;99420.69;4468255;32;34824;-90
2022/10/21 12:54:07;;;;;;;;;;;;;;;16.47;34.00;99415.44;4453888;32;33071;-89
2022/10/21 12:56:41;;;;;;;;;;;;;;;16.58;33.95;99415.38;4440960;32;34347;-91
2022/10/21 12:59:11;;;;;;;;;;;;;;;16.44;33.78;99412.84;4440980;32;34554;-89
2022/10/21 13:01:41;;;;;;;;;;;;;;;16.82;33.40;99414.31;4453810;32;33768;-89
2022/10/21 13:04:28;;;;;;;;;;;;;;;16.21;34.47;99407.75;4454074;32;32306;-90